Snag, Canada
Current Conditions -  °F | °C
As of 11:53 AM on Thursday 30 Oct 2014 (Local Time) from PAOR Reporting Station
Light Snow Light Snow  
Wind Chill:   Ceiling: 400
Heat Index:   Visibility: 7mi
Dew Point:   Wind: 3mph
Humidity: 87%   Direction: NA
Pressure: 29.54"   Gusts: NA
Location:  62.38°N, 140.37°W
Report Text: PAOR 301853Z VRB03KT 7SM -SN BKN004 BKN014 BKN017 M13/M15 A2954 RMK AO2 SLP061 T11331150
Loading
Personal Weather Stations






























Interactive Weather Map
Tropical Storm Tracking
New forecast layout! Learn more

10-Day Weather Forecast

Advertisements
Track Severe Weather on mobile